Time;durP1;ratioP1;P1;durP2;ratioP2;P2;SDS_P1;SDS_P2;PMS_P1;PMS_P2;Temp;Humidity;BMP_temperature;BMP_pressure;BME280_temperature;BME280_humidity;BME280_pressure;Samples;Min_cycle;Max_cycle;Signal;HPM_P1;HPM_P2
2023/12/20 00:00:37;;;;;;;17.63;6.22;;;6.90;99.90;;;;;;5043291;28;20201;-69
2023/12/20 00:03:04;;;;;;;17.42;3.55;;;7.00;99.90;;;;;;5047388;28;20689;-69
2023/12/20 00:05:33;;;;;;;7.35;2.30;;;6.90;99.90;;;;;;5041776;28;20651;-68
2023/12/20 00:08:00;;;;;;;18.48;4.20;;;6.80;99.90;;;;;;5051765;28;20224;-67
2023/12/20 00:10:27;;;;;;;5.00;2.38;;;6.90;99.90;;;;;;5046729;28;20285;-67
2023/12/20 00:12:54;;;;;;;7.28;2.88;;;6.80;99.90;;;;;;5044118;28;20201;-65
2023/12/20 00:15:22;;;;;;;10.77;3.25;;;6.80;99.90;;;;;;5047392;28;20216;-64
2023/12/20 00:17:49;;;;;;;14.88;2.95;;;6.80;99.90;;;;;;5043469;28;20290;-68
2023/12/20 00:20:16;;;;;;;6.03;3.47;;;6.80;99.90;;;;;;5050101;28;20271;-67
2023/12/20 00:22:43;;;;;;;8.20;3.33;;;6.80;99.90;;;;;;5044319;28;20267;-65
2023/12/20 00:25:11;;;;;;;7.70;2.83;;;6.80;99.90;;;;;;5050891;28;20257;-65
2023/12/20 00:27:38;;;;;;;13.63;2.78;;;6.70;99.90;;;;;;5035774;28;20220;-67
2023/12/20 00:30:06;;;;;;;14.70;3.70;;;6.70;99.90;;;;;;5051327;28;20255;-68
2023/12/20 00:32:35;;;;;;;8.93;2.33;;;6.70;99.90;;;;;;5046910;28;20197;-68
2023/12/20 00:35:02;;;;;;;16.13;3.33;;;6.60;99.90;;;;;;5042836;28;20232;-67
2023/12/20 00:37:29;;;;;;;16.10;2.83;;;6.60;99.90;;;;;;5045683;28;20240;-66
2023/12/20 00:39:56;;;;;;;15.43;2.35;;;6.60;99.90;;;;;;5044005;28;20596;-68
2023/12/20 00:42:24;;;;;;;21.83;2.40;;;6.60;99.90;;;;;;5054316;28;20676;-66
2023/12/20 00:44:51;;;;;;;11.23;2.97;;;6.60;99.90;;;;;;5044559;28;20227;-66
2023/12/20 00:47:18;;;;;;;9.30;2.30;;;6.50;99.90;;;;;;5044263;28;20224;-66
2023/12/20 00:49:46;;;;;;;18.52;3.40;;;6.50;99.90;;;;;;5047295;28;20342;-68
2023/12/20 00:52:14;;;;;;;11.27;3.17;;;6.60;99.90;;;;;;5047204;28;20338;-69
2023/12/20 00:54:41;;;;;;;8.68;2.72;;;6.50;99.90;;;;;;5041390;28;20204;-68
2023/12/20 00:57:09;;;;;;;14.50;2.40;;;6.50;99.90;;;;;;5047124;28;20698;-69
2023/12/20 00:59:35;;;;;;;12.85;2.92;;;6.50;99.90;;;;;;5044468;28;20228;-66
2023/12/20 01:02:03;;;;;;;6.45;2.40;;;6.40;99.90;;;;;;5043661;28;20257;-70
2023/12/20 01:04:30;;;;;;;15.10;3.30;;;6.40;99.90;;;;;;5045642;28;20227;-70
2023/12/20 01:06:58;;;;;;;12.70;3.60;;;6.40;99.90;;;;;;5042819;28;20232;-65
2023/12/20 01:09:26;;;;;;;12.32;2.88;;;6.40;99.90;;;;;;5047829;28;20281;-70
2023/12/20 01:11:53;;;;;;;8.00;3.45;;;6.40;99.90;;;;;;5049004;28;20667;-65
2023/12/20 01:14:22;;;;;;;22.80;3.95;;;6.30;99.90;;;;;;5045888;28;20224;-65
2023/12/20 01:16:49;;;;;;;8.43;2.75;;;6.30;99.90;;;;;;5049695;28;20290;-65
2023/12/20 01:19:17;;;;;;;16.75;3.60;;;6.30;99.90;;;;;;5049601;28;20574;-68
2023/12/20 01:21:44;;;;;;;12.00;3.38;;;6.30;99.90;;;;;;5056192;28;20737;-66
2023/12/20 01:24:12;;;;;;;10.90;2.97;;;6.30;99.90;;;;;;5042798;28;20232;-67
2023/12/20 01:26:39;;;;;;;13.68;3.35;;;6.30;99.90;;;;;;5043439;28;20398;-68
2023/12/20 01:29:06;;;;;;;11.00;3.58;;;6.30;99.90;;;;;;5047519;28;20667;-67
2023/12/20 01:31:34;;;;;;;14.20;3.10;;;6.30;99.90;;;;;;5053945;28;20226;-67
2023/12/20 01:34:01;;;;;;;6.55;2.95;;;6.30;99.90;;;;;;5048220;28;20196;-68
2023/12/20 01:36:29;;;;;;;13.07;3.60;;;6.20;99.90;;;;;;5047987;28;20236;-65
2023/12/20 01:38:56;;;;;;;3.75;3.20;;;6.20;99.90;;;;;;5045013;28;20287;-66
2023/12/20 01:41:24;;;;;;;10.10;2.72;;;6.20;99.90;;;;;;5039094;28;20566;-66
2023/12/20 01:43:53;;;;;;;9.02;2.15;;;6.20;99.90;;;;;;5047701;28;20306;-65
2023/12/20 01:46:21;;;;;;;18.90;5.60;;;6.30;99.90;;;;;;5045584;28;20227;-68
2023/12/20 01:48:49;;;;;;;14.18;3.35;;;6.30;99.90;;;;;;5044032;28;20213;-69
2023/12/20 01:51:16;;;;;;;10.27;2.47;;;6.40;99.90;;;;;;5047689;28;20218;-70
2023/12/20 01:53:45;;;;;;;12.10;3.95;;;6.40;99.90;;;;;;5046405;28;20302;-67
2023/12/20 01:56:12;;;;;;;7.50;1.55;;;6.40;99.90;;;;;;5040534;28;20239;-70
2023/12/20 01:58:48;;;;;;;16.23;3.90;;;6.40;99.90;;;;;;5044129;28;20679;-66
2023/12/20 02:01:16;;;;;;;10.50;3.13;;;6.30;99.90;;;;;;5048663;28;20195;-66
2023/12/20 02:03:43;;;;;;;7.65;2.40;;;6.30;99.90;;;;;;5047627;28;20250;-70
2023/12/20 02:06:10;;;;;;;11.45;2.97;;;6.30;99.90;;;;;;5045127;28;20208;-67
2023/12/20 02:08:38;;;;;;;14.40;2.95;;;6.30;99.90;;;;;;5041206;28;20239;-65
2023/12/20 02:11:05;;;;;;;13.80;2.75;;;6.30;99.90;;;;;;5049542;28;20251;-69
2023/12/20 02:13:31;;;;;;;10.00;3.33;;;6.30;99.90;;;;;;5048178;28;20224;-67
2023/12/20 02:16:00;;;;;;;25.77;4.75;;;6.30;99.90;;;;;;5046516;28;20507;-68
2023/12/20 02:18:27;;;;;;;23.88;4.18;;;6.30;99.90;;;;;;5046104;28;20651;-67
2023/12/20 02:20:55;;;;;;;8.60;2.45;;;6.20;99.90;;;;;;5041848;28;20727;-65
2023/12/20 02:23:23;;;;;;;14.38;2.47;;;6.20;99.90;;;;;;5047483;28;20614;-65
2023/12/20 02:25:51;;;;;;;9.45;4.30;;;6.20;99.90;;;;;;5056557;28;20236;-68
2023/12/20 02:28:18;;;;;;;6.50;1.98;;;6.20;99.90;;;;;;5051305;28;20627;-66
2023/12/20 02:30:46;;;;;;;15.50;2.88;;;6.20;99.90;;;;;;5051046;28;20235;-67
2023/12/20 02:33:15;;;;;;;10.40;2.53;;;6.20;99.90;;;;;;5042721;28;20237;-67
2023/12/20 02:35:42;;;;;;;8.20;2.70;;;6.20;99.90;;;;;;5048968;28;20725;-65
2023/12/20 02:38:09;;;;;;;12.50;2.88;;;6.20;99.90;;;;;;5044990;28;20260;-67
2023/12/20 02:40:37;;;;;;;7.63;2.75;;;6.20;99.90;;;;;;5051659;28;20258;-67
2023/12/20 02:43:04;;;;;;;12.55;2.47;;;6.20;99.90;;;;;;5051382;28;20231;-69
2023/12/20 02:45:33;;;;;;;11.85;2.85;;;6.20;99.90;;;;;;5042778;28;20258;-65
2023/12/20 02:48:00;;;;;;;11.15;3.65;;;6.20;99.90;;;;;;5051478;28;20228;-66
2023/12/20 02:50:27;;;;;;;7.97;2.45;;;6.20;99.90;;;;;;5049246;28;20653;-67
2023/12/20 02:52:54;;;;;;;10.20;2.47;;;6.20;99.90;;;;;;5045919;28;20539;-68
2023/12/20 02:55:22;;;;;;;14.55;2.58;;;6.30;99.90;;;;;;5050801;28;20253;-66
2023/12/20 02:57:50;;;;;;;10.13;2.80;;;6.30;99.90;;;;;;5048609;28;20298;-68
2023/12/20 03:00:17;;;;;;;10.35;4.57;;;6.30;99.90;;;;;;5054207;28;20634;-66
2023/12/20 03:02:44;;;;;;;10.07;3.30;;;6.40;99.90;;;;;;5060545;28;20235;-68
2023/12/20 03:05:11;;;;;;;13.10;3.90;;;6.40;99.90;;;;;;5052933;28;20211;-65
2023/12/20 03:07:38;;;;;;;15.65;3.80;;;6.50;99.90;;;;;;5053357;28;20285;-68
2023/12/20 03:10:07;;;;;;;11.52;3.05;;;6.40;99.90;;;;;;5055841;28;20200;-68
2023/12/20 03:12:34;;;;;;;6.93;2.35;;;6.50;99.90;;;;;;5060360;28;20311;-68
2023/12/20 03:15:02;;;;;;;18.42;3.53;;;6.50;99.90;;;;;;5054136;28;20685;-65
2023/12/20 03:17:29;;;;;;;9.73;2.72;;;6.50;99.90;;;;;;5054285;28;20562;-67
2023/12/20 03:19:56;;;;;;;7.88;3.22;;;6.50;99.90;;;;;;5051219;28;20235;-68
2023/12/20 03:22:23;;;;;;;9.45;2.97;;;6.60;99.90;;;;;;5044811;28;20353;-68
2023/12/20 03:24:58;;;;;;;10.13;2.65;;;6.60;99.90;;;;;;5064534;28;20665;-71
2023/12/20 03:27:25;;;;;;;9.38;2.60;;;6.60;99.90;;;;;;5055590;28;20249;-68
2023/12/20 03:29:59;;;;;;;6.78;2.20;;;6.50;99.90;;;;;;5058823;28;20201;-70
2023/12/20 03:32:28;;;;;;;10.43;5.65;;;6.60;99.90;;;;;;5053494;28;20220;-67
2023/12/20 03:34:56;;;;;;;25.15;2.92;;;6.60;99.90;;;;;;5049793;28;20235;-66
2023/12/20 03:37:24;;;;;;;11.57;2.70;;;6.60;99.90;;;;;;5054731;28;20358;-68
2023/12/20 03:39:51;;;;;;;12.93;3.50;;;6.60;99.90;;;;;;5056016;28;20565;-67
2023/12/20 03:42:18;;;;;;;16.33;3.70;;;6.60;99.90;;;;;;5054713;28;20627;-67
2023/12/20 03:44:45;;;;;;;7.20;2.80;;;6.60;99.90;;;;;;5050117;28;20212;-68
2023/12/20 03:47:13;;;;;;;13.38;3.40;;;6.60;99.90;;;;;;5051995;28;20299;-67
2023/12/20 03:49:41;;;;;;;14.15;3.55;;;6.60;99.90;;;;;;5053307;28;20211;-68
2023/12/20 03:52:08;;;;;;;17.30;5.95;;;6.60;99.90;;;;;;5053347;28;20281;-70
2023/12/20 03:54:36;;;;;;;21.17;4.10;;;6.60;99.90;;;;;;5046729;28;20205;-67
2023/12/20 03:57:04;;;;;;;9.15;3.30;;;6.70;99.90;;;;;;5045745;28;20230;-68
2023/12/20 03:59:35;;;;;;;9.98;3.83;;;6.70;99.90;;;;;;5050656;28;20200;-67
2023/12/20 04:02:02;;;;;;;25.10;4.97;;;6.70;99.90;;;;;;5057324;28;20212;-65
2023/12/20 04:04:29;;;;;;;11.40;4.35;;;6.70;99.90;;;;;;5052391;28;20568;-68
2023/12/20 04:06:58;;;;;;;20.45;3.20;;;6.70;99.90;;;;;;5051438;28;20282;-68
2023/12/20 04:09:25;;;;;;;31.10;5.13;;;6.70;99.90;;;;;;5052386;28;20232;-68
2023/12/20 04:11:52;;;;;;;12.90;5.05;;;6.70;99.90;;;;;;5052434;28;20215;-65
2023/12/20 04:14:19;;;;;;;13.35;3.90;;;6.70;99.90;;;;;;5053202;28;20269;-69
2023/12/20 04:16:46;;;;;;;12.50;4.30;;;6.70;99.90;;;;;;5045971;28;20278;-66
2023/12/20 04:19:13;;;;;;;18.55;4.13;;;6.70;99.90;;;;;;5050753;28;20199;-67
2023/12/20 04:21:42;;;;;;;11.95;4.30;;;6.70;99.90;;;;;;5053503;28;20203;-66
2023/12/20 04:24:10;;;;;;;14.43;5.43;;;6.70;99.90;;;;;;5043755;28;20265;-68
2023/12/20 04:26:37;;;;;;;14.30;5.10;;;6.70;99.90;;;;;;5049145;28;20634;-65
2023/12/20 04:29:04;;;;;;;15.07;4.40;;;6.70;99.90;;;;;;5051886;28;20270;-66
2023/12/20 04:31:31;;;;;;;13.75;4.40;;;6.80;99.90;;;;;;5060999;28;20639;-67
2023/12/20 04:33:58;;;;;;;12.38;4.18;;;6.80;99.90;;;;;;5052936;28;20277;-69
2023/12/20 04:36:26;;;;;;;13.60;4.13;;;6.80;99.90;;;;;;5046505;28;20289;-70
2023/12/20 04:38:54;;;;;;;11.18;5.85;;;6.80;99.90;;;;;;5051239;28;20246;-65
2023/12/20 04:41:22;;;;;;;12.18;4.32;;;6.70;99.90;;;;;;5048576;28;20204;-66
2023/12/20 04:43:50;;;;;;;22.35;6.15;;;6.70;99.90;;;;;;5054424;28;20226;-68
2023/12/20 04:46:18;;;;;;;13.60;4.68;;;6.80;99.90;;;;;;5051877;28;20254;-65
2023/12/20 04:48:45;;;;;;;16.15;5.22;;;6.70;99.90;;;;;;5053119;28;20548;-69
2023/12/20 04:51:12;;;;;;;19.08;6.22;;;6.70;99.90;;;;;;5054059;28;20274;-67
2023/12/20 04:53:39;;;;;;;18.50;6.80;;;6.70;99.90;;;;;;5049448;28;20233;-68
2023/12/20 04:56:06;;;;;;;14.93;8.13;;;6.70;99.90;;;;;;5046213;28;20196;-67
2023/12/20 04:58:37;;;;;;;17.95;6.75;;;6.70;99.90;;;;;;5051032;28;20232;-67
2023/12/20 05:01:06;;;;;;;16.10;6.75;;;6.70;99.90;;;;;;5052932;28;20204;-65
2023/12/20 05:03:33;;;;;;;18.23;6.40;;;6.80;99.90;;;;;;5043211;28;20207;-68
2023/12/20 05:06:01;;;;;;;16.98;5.82;;;6.80;99.90;;;;;;5051471;28;20291;-68
2023/12/20 05:08:28;;;;;;;21.00;5.00;;;6.80;99.90;;;;;;5052957;28;20261;-68
2023/12/20 05:10:55;;;;;;;18.15;6.90;;;6.80;99.90;;;;;;5046241;28;20231;-67
2023/12/20 05:13:22;;;;;;;21.77;5.32;;;6.80;99.90;;;;;;5054549;28;20200;-67
2023/12/20 05:15:52;;;;;;;12.63;4.93;;;6.80;99.90;;;;;;5048759;28;20200;-67
2023/12/20 05:18:19;;;;;;;18.67;5.90;;;6.80;99.90;;;;;;5048913;28;20679;-67
2023/12/20 05:20:46;;;;;;;8.75;4.88;;;6.80;99.90;;;;;;5051703;28;20212;-64
2023/12/20 05:23:13;;;;;;;15.18;5.45;;;6.80;99.90;;;;;;5054293;28;20243;-67
2023/12/20 05:25:41;;;;;;;17.60;4.95;;;6.90;99.90;;;;;;5046972;28;20220;-69
2023/12/20 05:28:08;;;;;;;13.18;5.05;;;6.80;99.90;;;;;;5048425;28;20220;-65
2023/12/20 05:30:35;;;;;;;17.20;5.35;;;6.90;99.90;;;;;;5048256;28;20196;-66
2023/12/20 05:33:04;;;;;;;14.73;4.78;;;6.90;99.90;;;;;;5051073;28;20212;-67
2023/12/20 05:35:31;;;;;;;16.80;5.88;;;6.80;99.90;;;;;;5044197;28;20211;-65
2023/12/20 05:37:58;;;;;;;7.80;3.45;;;6.90;99.90;;;;;;5046350;28;20283;-68
2023/12/20 05:40:25;;;;;;;17.10;4.72;;;6.90;99.90;;;;;;5046160;28;20662;-68
2023/12/20 05:42:52;;;;;;;10.07;3.85;;;6.90;99.90;;;;;;5050129;28;20196;-68
2023/12/20 05:45:20;;;;;;;22.63;5.18;;;6.80;99.90;;;;;;5046700;28;20628;-69
2023/12/20 05:47:47;;;;;;;20.42;4.93;;;6.80;99.90;;;;;;5052547;28;20227;-64
2023/12/20 05:50:16;;;;;;;14.60;4.00;;;6.80;99.90;;;;;;5053323;28;20200;-68
2023/12/20 05:52:43;;;;;;;23.67;5.18;;;6.80;99.90;;;;;;5056865;28;20553;-66
2023/12/20 05:55:16;;;;;;;16.50;5.50;;;6.90;99.90;;;;;;5051024;28;20655;-65
2023/12/20 05:57:44;;;;;;;22.38;4.38;;;6.80;99.90;;;;;;5051670;28;20317;-67
2023/12/20 06:00:13;;;;;;;23.50;5.30;;;7.00;99.90;;;;;;5043997;28;20721;-69
2023/12/20 06:02:40;;;;;;;9.52;4.55;;;6.90;99.90;;;;;;5056449;28;20261;-66
2023/12/20 06:05:07;;;;;;;21.50;5.20;;;6.90;99.90;;;;;;5050346;28;20208;-67
2023/12/20 06:07:36;;;;;;;15.48;4.05;;;7.00;99.90;;;;;;5051510;28;20255;-68
2023/12/20 06:10:04;;;;;;;9.50;3.80;;;7.00;99.90;;;;;;5054971;28;20208;-67
2023/12/20 06:12:33;;;;;;;8.55;3.60;;;7.00;99.90;;;;;;5059989;28;20304;-68
2023/12/20 06:15:00;;;;;;;17.95;6.45;;;7.00;99.90;;;;;;5055645;28;20228;-67
2023/12/20 06:17:30;;;;;;;20.10;5.68;;;7.00;99.90;;;;;;5055903;28;20220;-68
2023/12/20 06:19:57;;;;;;;22.23;5.85;;;7.00;99.90;;;;;;5054011;28;20868;-68
2023/12/20 06:22:24;;;;;;;11.93;4.15;;;7.00;99.90;;;;;;5057609;28;20254;-68
2023/12/20 06:24:54;;;;;;;9.90;3.97;;;7.10;99.90;;;;;;5053284;28;20206;-67
2023/12/20 06:27:21;;;;;;;19.70;4.32;;;7.20;99.90;;;;;;5051447;28;20281;-68
2023/12/20 06:29:48;;;;;;;19.42;6.60;;;7.20;99.90;;;;;;5054253;28;20281;-69
2023/12/20 06:32:15;;;;;;;22.45;4.38;;;7.20;99.90;;;;;;5053657;28;20666;-67
2023/12/20 06:34:42;;;;;;;15.20;4.78;;;7.20;99.90;;;;;;5050831;28;20662;-65
2023/12/20 06:37:09;;;;;;;20.13;4.88;;;7.20;99.90;;;;;;5052146;28;20580;-68
2023/12/20 06:39:37;;;;;;;21.95;4.82;;;7.20;99.90;;;;;;5060499;28;20210;-65
2023/12/20 06:42:05;;;;;;;13.82;5.30;;;7.20;99.90;;;;;;5059953;28;20196;-65
2023/12/20 06:44:32;;;;;;;18.95;5.10;;;7.20;99.90;;;;;;5050273;28;20203;-65
2023/12/20 06:46:59;;;;;;;19.35;5.40;;;7.20;99.90;;;;;;5055284;28;20247;-65
2023/12/20 06:49:27;;;;;;;19.98;5.47;;;7.30;99.90;;;;;;5055308;28;20200;-65
2023/12/20 06:51:56;;;;;;;28.73;6.38;;;7.30;99.90;;;;;;5057785;28;20227;-69
2023/12/20 06:54:23;;;;;;;24.42;4.45;;;7.30;99.90;;;;;;5054387;28;20685;-68
2023/12/20 06:56:50;;;;;;;12.65;4.88;;;7.30;99.90;;;;;;5054009;28;20775;-70
2023/12/20 06:59:18;;;;;;;18.10;4.15;;;7.30;99.90;;;;;;5050813;28;20204;-68
2023/12/20 07:01:49;;;;;;;16.45;5.32;;;7.30;99.90;;;;;;5051056;28;20199;-68
2023/12/20 07:04:19;;;;;;;22.30;5.95;;;7.30;99.90;;;;;;5047013;28;20204;-67
2023/12/20 07:06:47;;;;;;;18.02;6.22;;;7.30;99.90;;;;;;5040786;28;20351;-69
2023/12/20 07:09:15;;;;;;;16.80;5.95;;;7.30;99.90;;;;;;5049335;28;20202;-64
2023/12/20 07:11:42;;;;;;;17.65;4.85;;;7.40;99.90;;;;;;5048553;28;20216;-66
2023/12/20 07:14:09;;;;;;;17.35;6.00;;;7.40;99.90;;;;;;5048562;28;20283;-68
2023/12/20 07:16:37;;;;;;;18.92;6.03;;;7.40;99.90;;;;;;5049582;28;20306;-66
2023/12/20 07:19:10;;;;;;;26.42;6.85;;;7.40;99.90;;;;;;5049882;28;20247;-66
2023/12/20 07:21:37;;;;;;;18.63;4.53;;;7.40;99.90;;;;;;5054058;28;20208;-65
2023/12/20 07:24:06;;;;;;;20.83;6.13;;;7.40;99.90;;;;;;5053010;28;20200;-69
2023/12/20 07:26:33;;;;;;;18.08;5.22;;;7.40;99.90;;;;;;5049668;28;20652;-70
2023/12/20 07:29:01;;;;;;;22.67;6.25;;;7.40;99.90;;;;;;5042105;28;20208;-69
2023/12/20 07:31:28;;;;;;;21.52;4.78;;;7.40;99.90;;;;;;5046724;28;20201;-68
2023/12/20 07:34:02;;;;;;;22.45;6.60;;;7.40;99.90;;;;;;5057416;28;20281;-67
2023/12/20 07:36:36;;;;;;;16.85;5.35;;;7.50;99.90;;;;;;5043396;28;20228;-68
2023/12/20 07:39:04;;;;;;;17.38;5.70;;;7.50;99.90;;;;;;5048355;28;20325;-68
2023/12/20 07:41:31;;;;;;;17.63;5.70;;;7.50;99.90;;;;;;5045023;28;20244;-66
2023/12/20 07:43:59;;;;;;;19.92;4.82;;;7.50;99.90;;;;;;5043304;28;20730;-66
2023/12/20 07:46:26;;;;;;;12.57;4.65;;;7.50;99.90;;;;;;5054586;28;20223;-66
2023/12/20 07:48:53;;;;;;;20.58;6.50;;;7.60;99.90;;;;;;5041442;28;20254;-64
2023/12/20 07:51:22;;;;;;;18.77;5.55;;;7.60;99.90;;;;;;5047130;28;20200;-70
2023/12/20 07:53:50;;;;;;;23.35;7.35;;;7.60;99.90;;;;;;5052185;28;20235;-74
2023/12/20 07:56:17;;;;;;;23.63;5.60;;;7.50;99.90;;;;;;5047106;28;20204;-67
2023/12/20 07:58:45;;;;;;;13.45;6.15;;;7.60;99.90;;;;;;5045577;28;20619;-66
2023/12/20 08:01:13;;;;;;;27.15;6.82;;;7.60;99.90;;;;;;5049123;28;20661;-70
2023/12/20 08:03:41;;;;;;;27.05;7.70;;;7.60;99.90;;;;;;5052255;28;20192;-70
2023/12/20 08:06:08;;;;;;;23.80;10.20;;;7.60;99.90;;;;;;5040678;28;20287;-64
2023/12/20 08:08:37;;;;;;;26.58;6.68;;;7.50;99.90;;;;;;5044982;28;20232;-68
2023/12/20 08:11:04;;;;;;;25.67;5.82;;;7.50;99.90;;;;;;5047554;28;20204;-67
2023/12/20 08:13:31;;;;;;;23.58;5.68;;;7.50;99.90;;;;;;5051491;28;20220;-66
2023/12/20 08:15:59;;;;;;;25.02;5.13;;;7.50;99.90;;;;;;5038244;28;20217;-68
2023/12/20 08:18:26;;;;;;;17.73;5.50;;;7.80;99.90;;;;;;5050262;28;20583;-67
2023/12/20 08:20:53;;;;;;;10.95;4.95;;;7.80;99.90;;;;;;5049997;28;20744;-68
2023/12/20 08:23:21;;;;;;;16.23;4.90;;;7.80;99.90;;;;;;5042200;28;20255;-65
2023/12/20 08:25:50;;;;;;;27.50;5.25;;;7.80;99.90;;;;;;5044788;28;20232;-69
2023/12/20 08:28:17;;;;;;;14.80;4.68;;;7.80;99.90;;;;;;5043398;28;20695;-65
2023/12/20 08:30:44;;;;;;;17.17;5.25;;;7.80;99.90;;;;;;5046909;28;20227;-66
2023/12/20 08:33:12;;;;;;;17.55;7.22;;;7.80;99.90;;;;;;5046333;28;20260;-65
2023/12/20 08:35:40;;;;;;;22.15;6.20;;;7.80;99.90;;;;;;5049497;28;20407;-66
2023/12/20 08:38:07;;;;;;;23.58;4.95;;;7.90;99.90;;;;;;5045586;28;20264;-69
2023/12/20 08:40:34;;;;;;;12.82;4.63;;;7.90;99.90;;;;;;5052211;28;20204;-69
2023/12/20 08:43:03;;;;;;;13.90;4.50;;;7.90;99.90;;;;;;5051840;28;20600;-66
2023/12/20 08:45:30;;;;;;;15.35;4.90;;;7.90;99.90;;;;;;5045193;28;20568;-67
2023/12/20 08:47:57;;;;;;;14.68;5.40;;;7.90;99.90;;;;;;5048828;28;20226;-65
2023/12/20 08:50:25;;;;;;;15.38;4.85;;;7.90;99.90;;;;;;5044360;28;20258;-70
2023/12/20 08:52:52;;;;;;;17.60;4.28;;;7.90;99.90;;;;;;5047962;28;20227;-67
2023/12/20 08:55:19;;;;;;;13.13;5.95;;;8.00;99.90;;;;;;5047937;28;20192;-68
2023/12/20 08:57:46;;;;;;;24.02;9.38;;;8.00;99.90;;;;;;5047147;28;20224;-69
2023/12/20 09:00:16;;;;;;;15.73;5.70;;;8.00;99.90;;;;;;5052329;28;20254;-67
2023/12/20 09:02:43;;;;;;;16.73;5.10;;;8.00;99.90;;;;;;5045118;28;20193;-68
2023/12/20 09:05:11;;;;;;;14.95;5.22;;;8.00;99.90;;;;;;5051572;28;20216;-65
2023/12/20 09:07:38;;;;;;;7.68;4.30;;;7.90;99.90;;;;;;5047245;28;20227;-67
2023/12/20 09:10:08;;;;;;;16.00;5.88;;;7.90;99.90;;;;;;5051235;28;20262;-69
2023/12/20 09:12:35;;;;;;;12.50;4.63;;;7.90;99.90;;;;;;5050637;28;20265;-67
2023/12/20 09:15:02;;;;;;;12.77;5.75;;;7.90;99.90;;;;;;5054462;28;20265;-68
2023/12/20 09:17:31;;;;;;;11.35;4.63;;;7.80;99.90;;;;;;5052460;28;20236;-69
2023/12/20 09:19:59;;;;;;;25.38;5.55;;;7.70;99.90;;;;;;5040962;28;20212;-67
2023/12/20 09:22:27;;;;;;;17.02;4.55;;;7.70;99.90;;;;;;5049571;28;20207;-68
2023/12/20 09:24:54;;;;;;;23.55;5.28;;;7.70;99.90;;;;;;5039957;28;20634;-71
2023/12/20 09:27:22;;;;;;;21.50;4.82;;;7.70;99.90;;;;;;5049740;28;20223;-69
2023/12/20 09:29:49;;;;;;;23.10;6.00;;;7.70;99.90;;;;;;5050583;28;20567;-66
2023/12/20 09:32:16;;;;;;;20.70;5.82;;;7.70;99.90;;;;;;5047719;28;20212;-64
2023/12/20 09:34:45;;;;;;;10.43;4.10;;;7.70;99.90;;;;;;5046798;28;20231;-68
2023/12/20 09:37:11;;;;;;;20.17;6.53;;;7.70;99.90;;;;;;5049141;28;20239;-70
2023/12/20 09:39:39;;;;;;;22.85;4.88;;;7.70;99.90;;;;;;5046048;28;20200;-66
2023/12/20 09:42:07;;;;;;;13.07;4.78;;;7.70;99.90;;;;;;5048970;28;20258;-68
2023/12/20 09:44:35;;;;;;;20.40;7.05;;;7.80;99.90;;;;;;5047979;28;20205;-70
2023/12/20 09:47:04;;;;;;;14.43;5.03;;;7.80;99.90;;;;;;5051882;28;20743;-69
2023/12/20 09:49:31;;;;;;;22.02;5.57;;;7.90;99.90;;;;;;5048722;28;20247;-69
2023/12/20 09:52:01;;;;;;;20.55;6.43;;;8.00;99.90;;;;;;5044390;28;20196;-67
2023/12/20 09:54:30;;;;;;;12.60;4.40;;;8.00;99.90;;;;;;5049395;28;20628;-72
2023/12/20 09:56:57;;;;;;;16.00;4.53;;;7.80;99.90;;;;;;5043454;28;20316;-69
2023/12/20 09:59:24;;;;;;;10.98;4.00;;;7.60;99.90;;;;;;5050792;28;20317;-68
2023/12/20 10:01:54;;;;;;;12.18;4.30;;;7.60;99.90;;;;;;5053424;28;20535;-72
2023/12/20 10:04:21;;;;;;;11.13;2.67;;;7.40;99.90;;;;;;5050131;28;20196;-68
2023/12/20 10:06:48;;;;;;;9.95;2.70;;;7.40;99.90;;;;;;5052909;28;20231;-68
2023/12/20 10:09:17;;;;;;;5.28;2.35;;;7.40;99.90;;;;;;5052074;28;20230;-68
2023/12/20 10:11:44;;;;;;;6.38;2.55;;;7.20;99.90;;;;;;5052321;28;20204;-66
2023/12/20 10:14:12;;;;;;;6.75;1.80;;;7.10;99.90;;;;;;5051223;28;20224;-73
2023/12/20 10:16:39;;;;;;;7.90;1.50;;;7.00;99.90;;;;;;5051582;28;20234;-71
2023/12/20 10:19:06;;;;;;;3.90;2.10;;;7.00;99.90;;;;;;5045151;28;20663;-70
2023/12/20 10:21:33;;;;;;;7.55;1.95;;;7.00;99.90;;;;;;5052795;28;20204;-70
2023/12/20 10:24:02;;;;;;;3.95;1.10;;;6.90;99.90;;;;;;5052373;28;20215;-70
2023/12/20 10:26:31;;;;;;;3.92;1.65;;;6.90;99.90;;;;;;5051443;28;20232;-70
2023/12/20 10:29:02;;;;;;;2.25;1.50;;;6.90;99.90;;;;;;5049855;28;20205;-69
2023/12/20 10:31:31;;;;;;;3.83;1.25;;;7.00;99.90;;;;;;5051544;28;20257;-68
2023/12/20 10:34:02;;;;;;;3.20;1.17;;;7.00;99.90;;;;;;5047833;28;20224;-70
2023/12/20 10:36:30;;;;;;;2.55;1.30;;;7.00;99.90;;;;;;5050631;28;20266;-70
2023/12/20 10:38:58;;;;;;;2.55;1.20;;;7.00;99.90;;;;;;5051480;28;20651;-67
2023/12/20 10:41:28;;;;;;;8.05;1.55;;;7.00;99.90;;;;;;5051465;28;20200;-70
2023/12/20 10:44:00;;;;;;;2.88;1.20;;;7.00;99.90;;;;;;5051571;28;20378;-71
2023/12/20 10:46:29;;;;;;;6.88;1.38;;;7.00;99.90;;;;;;5049487;28;20697;-71
2023/12/20 10:48:57;;;;;;;2.65;1.60;;;7.20;99.90;;;;;;5059642;28;20210;-71
2023/12/20 10:51:26;;;;;;;4.72;2.38;;;7.30;99.90;;;;;;5046194;28;20211;-68
2023/12/20 10:53:54;;;;;;;8.52;1.48;;;7.40;99.90;;;;;;5051644;28;20581;-68
2023/12/20 10:56:23;;;;;;;3.35;1.60;;;7.40;99.90;;;;;;5053100;28;20247;-68
2023/12/20 10:58:50;;;;;;;4.43;2.25;;;7.40;99.90;;;;;;5047560;28;20227;-68
2023/12/20 11:01:20;;;;;;;3.65;2.03;;;7.50;99.90;;;;;;5054858;28;20554;-71
2023/12/20 11:03:51;;;;;;;4.35;1.35;;;7.50;99.90;;;;;;5059174;28;20608;-73
2023/12/20 11:06:35;;;;;;;1.92;1.00;;;7.50;99.90;;;;;;5052046;28;20612;-71
2023/12/20 11:09:12;;;;;;;2.35;1.10;;;7.70;99.90;;;;;;5046967;28;20677;-70
2023/12/20 11:11:57;;;;;;;6.10;1.63;;;7.70;99.90;;;;;;5049831;28;20615;-68
2023/12/20 11:14:28;;;;;;;3.78;1.92;;;7.70;99.90;;;;;;5045894;28;20208;-71
2023/12/20 11:17:08;;;;;;;4.28;2.45;;;7.80;99.90;;;;;;5046244;28;20256;-71
2023/12/20 11:19:38;;;;;;;11.65;2.15;;;7.80;99.90;;;;;;5047466;28;20204;-72
2023/12/20 11:22:06;;;;;;;7.57;2.03;;;7.90;99.90;;;;;;5051171;28;20298;-66
2023/12/20 11:24:34;;;;;;;7.30;1.70;;;7.80;99.90;;;;;;5057122;28;20238;-68
2023/12/20 11:27:02;;;;;;;6.70;2.55;;;7.80;99.90;;;;;;5051448;28;20713;-70
2023/12/20 11:29:33;;;;;;;5.50;2.03;;;7.90;99.90;;;;;;5047632;28;20201;-69
2023/12/20 11:32:02;;;;;;;10.15;1.90;;;8.00;99.90;;;;;;5049512;28;20212;-68
2023/12/20 11:34:34;;;;;;;9.13;2.10;;;8.00;99.90;;;;;;5050766;28;20248;-69
2023/12/20 11:37:01;;;;;;;5.85;2.65;;;8.00;99.90;;;;;;5048682;28;20285;-67
2023/12/20 11:39:31;;;;;;;9.35;2.42;;;8.00;99.90;;;;;;5050086;28;20213;-65
2023/12/20 11:42:04;;;;;;;12.60;3.05;;;8.10;99.90;;;;;;5044368;28;20197;-65
2023/12/20 11:44:32;;;;;;;8.82;2.55;;;8.20;99.90;;;;;;5052247;28;20205;-65
2023/12/20 11:46:59;;;;;;;6.47;1.80;;;8.20;99.90;;;;;;5047750;28;20306;-71
2023/12/20 11:49:29;;;;;;;5.40;2.20;;;8.10;99.90;;;;;;5055072;28;20196;-69
2023/12/20 11:51:57;;;;;;;6.45;1.88;;;8.00;99.90;;;;;;5054807;28;20204;-67
2023/12/20 11:54:26;;;;;;;7.95;1.90;;;8.10;99.90;;;;;;5053290;28;20213;-69
2023/12/20 11:56:53;;;;;;;4.05;1.48;;;8.10;99.90;;;;;;5056414;28;20304;-67
2023/12/20 11:59:21;;;;;;;10.82;2.80;;;8.10;99.90;;;;;;5045957;28;20197;-68
2023/12/20 12:01:51;;;;;;;10.98;2.72;;;8.00;99.90;;;;;;5048700;28;20686;-65
2023/12/20 12:04:19;;;;;;;5.03;2.03;;;8.00;99.90;;;;;;5052799;28;20200;-67
2023/12/20 12:06:47;;;;;;;5.97;1.60;;;8.00;99.90;;;;;;5045775;28;20239;-67
2023/12/20 12:09:15;;;;;;;6.32;1.85;;;8.00;99.90;;;;;;5048832;28;20246;-70
2023/12/20 12:11:43;;;;;;;10.68;2.75;;;8.00;99.90;;;;;;5043021;28;20634;-67
2023/12/20 12:14:10;;;;;;;12.20;3.08;;;8.00;99.90;;;;;;5049174;28;20228;-68
2023/12/20 12:16:37;;;;;;;5.70;2.47;;;8.10;99.90;;;;;;5045076;28;20224;-68
2023/12/20 12:19:06;;;;;;;12.80;2.08;;;8.40;99.90;;;;;;5052208;28;20261;-68
2023/12/20 12:21:33;;;;;;;11.30;3.55;;;8.50;99.90;;;;;;5054695;28;20562;-65
2023/12/20 12:24:10;;;;;;;15.68;4.35;;;8.60;99.90;;;;;;5066062;28;20200;-65
2023/12/20 12:26:39;;;;;;;18.58;3.58;;;8.60;99.90;;;;;;5050730;28;20223;-70
2023/12/20 12:29:09;;;;;;;9.00;3.25;;;8.70;99.90;;;;;;5046758;28;20207;-67
2023/12/20 12:31:37;;;;;;;7.57;2.78;;;8.80;99.90;;;;;;5047323;28;20585;-68
2023/12/20 12:34:05;;;;;;;15.20;6.65;;;8.70;99.90;;;;;;5050980;28;20220;-69
2023/12/20 12:36:33;;;;;;;14.80;5.40;;;8.70;99.90;;;;;;5052894;28;20292;-68
2023/12/20 12:39:04;;;;;;;10.52;3.38;;;8.60;99.90;;;;;;5047687;28;20210;-67
2023/12/20 12:41:32;;;;;;;14.13;4.32;;;8.60;99.90;;;;;;5045622;28;20212;-68
2023/12/20 12:44:00;;;;;;;12.77;5.03;;;8.60;99.90;;;;;;5050858;28;20195;-67
2023/12/20 12:46:27;;;;;;;8.57;3.17;;;8.60;99.90;;;;;;5042748;28;20744;-67
2023/12/20 12:48:54;;;;;;;4.28;2.03;;;8.70;99.90;;;;;;5049546;28;20200;-68
2023/12/20 12:51:22;;;;;;;16.30;3.38;;;8.70;99.90;;;;;;5054832;28;20208;-67
2023/12/20 12:53:49;;;;;;;10.98;3.92;;;8.80;99.90;;;;;;5056040;28;20228;-65